createdAt,value
2023-01-19T15:46:04.075Z,55.85
2023-01-19T15:52:01.214Z,55.67
2023-01-19T15:53:23.204Z,55.53
2023-01-19T15:54:24.341Z,56.57
2023-01-19T15:57:08.658Z,56.99
2023-01-19T16:04:45.341Z,57.90
2023-01-19T16:08:01.843Z,58.61
2023-01-19T16:13:31.014Z,58.73
2023-01-19T16:16:46.082Z,58.26
2023-01-19T16:24:04.125Z,59.59
2023-01-19T16:25:05.865Z,58.97
2023-01-19T16:26:05.481Z,59.14
2023-01-19T16:27:05.342Z,59.06
2023-01-19T16:28:05.757Z,58.41
2023-01-19T16:29:03.668Z,58.67
2023-01-19T16:30:06.688Z,58.37
2023-01-19T16:31:04.876Z,58.47
2023-01-19T16:32:05.796Z,58.37
2023-01-19T16:33:04.442Z,57.98
2023-01-19T16:34:04.390Z,58.17
2023-01-19T16:35:07.471Z,58.07
2023-01-19T16:36:03.371Z,57.71
2023-01-19T16:37:04.238Z,58.08
2023-01-19T16:38:05.104Z,58.12
2023-01-19T16:39:04.029Z,57.65
2023-01-19T16:40:03.302Z,56.65
2023-01-19T16:41:04.863Z,56.29
2023-01-19T16:42:03.941Z,56.42
2023-01-19T16:43:04.991Z,57.05
2023-01-19T16:44:03.800Z,56.49
2023-01-19T16:45:03.723Z,56.43
2023-01-19T16:46:03.941Z,56.83
2023-01-19T16:47:03.784Z,56.83
2023-01-19T16:48:03.546Z,56.81
2023-01-19T16:49:03.679Z,56.19
2023-01-19T16:50:03.559Z,56.55
2023-01-19T16:51:03.568Z,56.53
2023-01-19T16:52:03.547Z,56.90
2023-01-19T16:53:03.229Z,57.04
2023-01-19T16:54:03.141Z,56.43
2023-01-19T16:55:03.365Z,56.15
2023-01-19T16:56:03.199Z,56.60
2023-01-19T16:57:03.233Z,57.04
2023-01-19T16:58:02.921Z,57.04
2023-01-19T16:59:02.860Z,57.18
2023-01-19T17:00:02.892Z,57.95
2023-01-19T17:01:02.819Z,58.02
2023-01-19T17:02:03.807Z,57.73
2023-01-19T17:03:02.788Z,57.88
2023-01-19T17:04:02.725Z,57.80
2023-01-19T17:05:03.105Z,57.80
2023-01-19T17:06:02.716Z,58.00
2023-01-19T17:07:02.685Z,57.85
2023-01-19T17:08:02.641Z,57.85
2023-01-19T17:09:09.088Z,58.19
2023-01-19T17:10:03.714Z,57.90
2023-01-19T17:11:01.481Z,57.93
2023-01-19T17:12:03.363Z,57.85
2023-01-19T17:13:02.738Z,57.95
2023-01-19T17:14:03.073Z,57.85
2023-01-19T17:15:02.197Z,57.63
2023-01-19T17:16:02.332Z,57.76
2023-01-19T17:17:02.238Z,57.81
2023-01-19T17:18:02.008Z,57.58
2023-01-19T17:19:01.949Z,57.53
2023-01-19T17:20:01.910Z,57.40
2023-01-19T17:21:01.803Z,56.98
2023-01-19T17:22:01.742Z,57.29
2023-01-19T17:23:02.866Z,57.41
2023-01-19T17:24:00.673Z,57.40
2023-01-19T17:25:02.177Z,57.19
2023-01-19T17:26:01.541Z,57.08
2023-01-19T17:27:01.462Z,57.38
2023-01-19T17:28:01.394Z,57.44
2023-01-19T17:29:01.833Z,57.35
2023-01-19T17:30:01.629Z,57.72
2023-01-19T17:31:01.300Z,57.67
2023-01-19T17:32:01.728Z,57.63
2023-01-19T17:33:02.340Z,57.64
2023-01-19T17:34:01.825Z,57.34
2023-01-19T17:35:01.257Z,57.01
2023-01-19T17:36:00.814Z,56.30
2023-01-19T17:37:03.904Z,55.82
2023-01-19T17:38:00.664Z,55.92
2023-01-19T17:39:02.330Z,56.03
2023-01-19T17:40:00.787Z,56.23
2023-01-19T17:41:00.940Z,55.82
2023-01-19T17:42:00.416Z,55.87
2023-01-19T17:43:02.726Z,56.05
2023-01-19T17:44:01.068Z,56.28
2023-01-19T17:45:00.432Z,57.28
2023-01-19T17:46:00.222Z,57.84
2023-01-19T17:47:00.741Z,58.36
2023-01-19T17:48:00.427Z,58.61
2023-01-19T17:49:00.122Z,59.33
2023-01-19T17:50:01.565Z,59.74
2023-01-19T17:50:59.008Z,59.29
2023-01-19T17:51:59.971Z,59.19
2023-01-19T17:53:00.245Z,58.64
2023-01-19T17:53:59.896Z,58.32
2023-01-19T17:55:00.027Z,58.22
2023-01-19T17:55:59.791Z,58.74
2023-01-19T17:57:00.530Z,58.90
2023-01-19T17:58:00.427Z,59.20
2023-01-19T17:58:59.839Z,58.51
2023-01-19T17:59:59.552Z,58.40
2023-01-19T18:01:00.101Z,58.76
2023-01-19T18:01:59.759Z,58.63
2023-01-19T18:02:59.462Z,58.42
2023-01-19T18:03:59.301Z,58.18
2023-01-19T18:04:59.234Z,57.71
2023-01-19T18:05:59.179Z,57.84
2023-01-19T18:06:59.675Z,57.54
2023-01-19T18:08:00.068Z,57.47
2023-01-19T18:08:58.961Z,57.34
2023-01-19T18:10:00.975Z,57.43
2023-01-19T18:10:59.153Z,57.28
2023-01-19T18:11:57.824Z,56.55
2023-01-19T18:12:58.649Z,56.46
2023-01-19T18:13:58.569Z,56.39
2023-01-19T18:14:58.491Z,56.39
2023-01-19T18:16:06.874Z,57.62
2023-01-19T18:16:59.578Z,57.63
2023-01-19T18:17:58.182Z,57.08
2023-01-19T18:18:59.059Z,56.33
2023-01-19T18:19:59.227Z,56.84
2023-01-19T18:20:57.988Z,56.93
2023-01-19T18:21:58.313Z,56.59
2023-01-19T18:22:59.361Z,56.32
2023-01-19T18:23:57.841Z,56.39
2023-01-19T18:24:58.022Z,56.37
2023-01-19T18:25:57.675Z,56.24
2023-01-19T18:26:57.586Z,56.20
2023-01-19T18:27:57.810Z,56.16
2023-01-19T18:28:58.224Z,56.09
2023-01-19T18:29:57.327Z,55.82
2023-01-19T18:30:57.425Z,55.56
2023-01-19T18:31:57.147Z,55.60
2023-01-19T18:32:57.826Z,55.51
2023-01-19T18:33:58.859Z,55.01
2023-01-19T18:34:56.875Z,55.03
2023-01-19T18:35:56.779Z,54.94
2023-01-19T18:36:56.976Z,54.97
2023-01-19T18:37:56.832Z,55.09
2023-01-19T18:38:56.518Z,54.84
2023-01-19T18:39:58.731Z,55.10
2023-01-19T18:40:56.354Z,54.95
2023-01-19T18:41:56.313Z,55.68
2023-01-19T18:42:56.237Z,56.13
2023-01-19T18:43:56.166Z,55.96
2023-01-19T18:44:57.283Z,55.92
2023-01-19T18:45:57.823Z,56.27
2023-01-19T18:46:55.207Z,56.79
2023-01-19T18:47:56.273Z,56.81
2023-01-19T18:48:56.699Z,57.31
2023-01-19T18:49:56.849Z,57.20
2023-01-19T18:50:55.691Z,57.09
2023-01-19T18:51:59.126Z,57.21
2023-01-19T18:52:57.710Z,56.97
2023-01-19T18:53:55.492Z,56.23
2023-01-19T18:54:56.238Z,56.10
2023-01-19T18:55:56.635Z,56.10
2023-01-19T18:56:55.955Z,56.22
2023-01-19T18:57:55.325Z,56.41
2023-01-19T18:58:55.409Z,56.42
2023-01-19T18:59:55.608Z,56.70
2023-01-19T19:00:55.824Z,57.20
2023-01-19T19:01:55.223Z,57.15
2023-01-19T19:02:55.062Z,56.99
2023-01-19T19:03:54.985Z,56.76
2023-01-19T19:04:55.422Z,56.65
2023-01-19T19:05:55.135Z,56.61
2023-01-19T19:06:56.778Z,56.38
2023-01-19T19:07:53.666Z,56.18
2023-01-19T19:08:54.561Z,55.95
2023-01-19T19:09:58.780Z,55.71
2023-01-19T19:10:54.419Z,55.78
2023-01-19T19:11:55.830Z,55.31
2023-01-19T19:12:55.710Z,55.06
2023-01-19T19:13:53.311Z,55.32
2023-01-19T19:14:54.370Z,56.02
2023-01-19T19:15:54.182Z,56.15
2023-01-19T19:16:54.029Z,56.39
2023-01-19T19:17:53.949Z,56.02
2023-01-19T19:18:54.644Z,55.86
2023-01-19T19:19:53.958Z,55.72
2023-01-19T19:20:54.598Z,55.76
2023-01-19T19:21:53.592Z,55.81
2023-01-19T19:22:53.519Z,55.85
2023-01-19T19:23:53.891Z,55.74
2023-01-19T19:25:01.880Z,55.85
2023-01-19T19:25:53.181Z,55.52
2023-01-19T19:26:57.169Z,55.31
2023-01-19T19:27:53.092Z,55.19
2023-01-19T19:29:02.161Z,55.25
2023-01-19T19:29:54.844Z,55.21
2023-01-19T19:30:52.920Z,54.47
2023-01-19T19:31:53.565Z,54.55
2023-01-19T19:32:53.734Z,54.55
2023-01-19T19:33:52.837Z,54.63
2023-01-19T19:34:52.843Z,54.75
2023-01-19T19:35:51.381Z,54.85
2023-01-19T19:36:52.277Z,55.08
2023-01-19T19:37:53.436Z,54.85
2023-01-19T19:38:53.873Z,54.83
2023-01-19T19:39:52.598Z,54.80
2023-01-19T19:40:51.890Z,54.69
2023-01-19T19:41:51.818Z,54.55
2023-01-19T19:42:51.722Z,54.12
2023-01-19T19:43:51.996Z,53.94
2023-01-19T19:44:51.527Z,53.95
2023-01-19T19:45:53.679Z,53.76
2023-01-19T19:46:52.921Z,53.89
2023-01-19T19:47:51.361Z,54.07
2023-01-19T19:48:51.272Z,54.17
2023-01-19T19:49:51.240Z,53.95
2023-01-19T19:50:52.159Z,54.72
2023-01-19T19:51:53.414Z,54.44
2023-01-19T19:52:50.262Z,54.18
2023-01-19T19:53:52.369Z,54.82
2023-01-19T19:54:49.740Z,54.40
2023-01-19T19:55:50.620Z,54.12
2023-01-19T19:56:50.832Z,54.19
2023-01-19T19:57:50.772Z,54.36
2023-01-19T19:58:50.391Z,54.25
2023-01-19T19:59:50.316Z,54.34
2023-01-19T20:00:50.380Z,54.43
2023-01-19T20:01:50.175Z,54.47
2023-01-19T20:02:50.466Z,54.38
2023-01-19T20:03:50.426Z,54.47
2023-01-19T20:06:43.834Z,54.40
2023-01-19T20:07:45.009Z,54.90
2023-01-19T20:08:44.747Z,55.32
2023-01-19T20:09:45.274Z,55.36
2023-01-19T20:10:46.796Z,56.01
2023-01-19T20:11:44.648Z,55.65
2023-01-19T20:12:45.343Z,55.71
2023-01-19T20:13:45.232Z,56.51
2023-01-19T20:14:43.860Z,55.98
2023-01-19T20:15:49.314Z,55.99
2023-01-19T20:16:44.407Z,56.05
2023-01-19T20:17:44.358Z,55.97
2023-01-19T20:18:45.691Z,55.93
2023-01-19T20:20:05.555Z,55.91
2023-01-19T20:20:45.217Z,56.13
2023-01-19T20:21:44.299Z,56.38
2023-01-19T20:22:45.216Z,57.12
2023-01-19T20:33:35.462Z,62.00
2023-01-19T20:34:33.941Z,61.28
2023-01-19T20:35:33.084Z,60.96
2023-01-19T20:36:33.019Z,60.68
2023-01-19T20:37:32.937Z,60.41
2023-01-19T20:38:32.933Z,59.96
2023-01-19T20:39:35.718Z,59.47
2023-01-19T20:55:30.289Z,56.24
2023-01-19T20:56:30.152Z,56.20
2023-01-19T20:57:29.474Z,56.56
2023-01-19T20:58:29.904Z,56.58
2023-01-19T21:00:29.715Z,56.30
2023-01-19T21:01:29.346Z,56.20
2023-01-19T21:02:29.279Z,56.61
2023-01-19T21:03:29.192Z,56.34
2023-01-19T21:04:29.179Z,56.19
2023-01-19T21:05:29.152Z,56.00
2023-01-19T21:06:51.272Z,56.02
2023-01-19T21:07:29.103Z,55.84
2023-01-19T21:08:29.271Z,55.87
2023-01-19T21:09:29.621Z,55.82
2023-01-19T21:10:29.168Z,55.95
2023-01-19T21:11:32.216Z,55.89
2023-01-19T21:12:27.888Z,56.08
2023-01-19T21:13:28.845Z,56.32
2023-01-19T21:14:28.811Z,56.10
2023-01-19T21:16:28.793Z,56.83
2023-01-19T21:17:31.207Z,56.92
2023-01-19T21:18:28.689Z,57.67
2023-01-19T21:19:28.702Z,57.63
2023-01-19T21:20:30.197Z,58.04
2023-01-19T21:21:31.464Z,57.78
2023-01-19T21:22:28.716Z,58.09
2023-01-19T21:23:29.614Z,58.17
2023-01-19T21:24:28.637Z,58.27
2023-01-19T21:25:30.084Z,58.16
2023-01-19T21:26:30.395Z,58.16
2023-01-19T21:27:28.666Z,58.32
2023-01-19T21:29:31.328Z,57.89
2023-01-19T21:30:29.679Z,58.85
2023-01-19T21:31:29.298Z,59.44
2023-01-19T21:32:27.568Z,60.54
2023-01-19T21:33:28.587Z,61.20
2023-01-19T21:34:29.446Z,61.33
2023-01-19T21:35:28.889Z,60.91
2023-01-19T21:36:31.925Z,61.04
2023-01-19T21:37:29.948Z,61.38
2023-01-19T21:38:30.815Z,60.82
2023-01-19T21:40:29.257Z,61.75
2023-01-19T21:41:30.360Z,61.12
2023-01-19T21:42:28.601Z,61.01
2023-01-19T21:43:28.583Z,60.83
2023-01-19T21:44:28.726Z,60.27
2023-01-19T21:45:28.702Z,59.77
2023-01-19T21:46:28.502Z,59.45
2023-01-19T21:47:28.492Z,58.85
2023-01-19T21:48:28.444Z,58.08
2023-01-19T21:49:28.424Z,57.89
2023-01-19T21:50:28.394Z,58.14
2023-01-19T21:51:29.641Z,58.16
2023-01-19T21:53:28.363Z,58.58
2023-01-19T21:54:28.356Z,58.93
2023-01-19T21:55:28.656Z,58.61
2023-01-19T21:56:29.084Z,58.54
2023-01-19T21:57:28.263Z,57.95
2023-01-19T21:58:29.026Z,57.98
2023-01-19T21:59:28.229Z,57.86
2023-01-19T22:00:28.210Z,57.69
2023-01-19T22:01:28.550Z,57.70
2023-01-19T22:02:38.230Z,57.72
2023-01-19T22:03:30.011Z,57.60
2023-01-19T22:05:30.567Z,57.42
2023-01-19T22:08:16.488Z,57.59
2023-01-19T22:09:17.643Z,57.71
2023-01-19T22:10:17.794Z,57.59
2023-01-19T22:11:17.298Z,57.51
2023-01-19T22:12:17.271Z,57.44
2023-01-19T22:13:18.445Z,57.34
2023-01-19T22:14:21.035Z,57.32
2023-01-19T22:15:16.295Z,57.45
2023-01-19T22:16:17.329Z,57.57
2023-01-19T22:17:17.841Z,57.70
2023-01-19T22:18:17.760Z,57.56
2023-01-19T22:19:17.142Z,57.48
2023-01-19T22:20:20.051Z,57.57
2023-01-19T22:21:17.242Z,57.91
2023-01-19T22:22:17.419Z,57.60
2023-01-19T22:23:16.926Z,57.58
2023-01-19T22:24:16.872Z,57.42
2023-01-19T22:25:17.912Z,57.31
2023-01-19T22:26:18.582Z,57.13
2023-01-19T22:27:16.675Z,57.02
2023-01-19T22:28:16.602Z,56.76
2023-01-19T22:29:17.304Z,56.54
2023-01-19T22:30:16.500Z,56.32
2023-01-19T22:31:16.596Z,56.27
2023-01-19T22:32:16.358Z,56.09
2023-01-19T22:33:16.304Z,55.90
2023-01-19T22:34:16.486Z,55.76
2023-01-19T22:35:16.159Z,55.32
2023-01-19T22:36:16.096Z,55.07
2023-01-19T22:37:16.971Z,55.29
2023-01-19T22:38:20.012Z,55.70
2023-01-19T22:39:15.964Z,56.07
2023-01-19T22:40:18.642Z,56.41
2023-01-19T22:41:18.984Z,57.04
2023-01-19T22:42:15.915Z,57.33
2023-01-19T22:43:25.300Z,58.33
2023-01-19T22:44:15.867Z,58.78
2023-01-19T22:45:16.261Z,58.95
2023-01-19T22:46:18.175Z,59.02
2023-01-19T22:47:16.122Z,58.81
2023-01-19T22:48:16.436Z,59.47
2023-01-19T22:49:15.786Z,59.61
2023-01-19T22:50:15.755Z,59.77
2023-01-19T22:51:15.736Z,59.27
2023-01-19T22:52:16.179Z,59.14
2023-01-19T22:53:15.645Z,58.98
2023-01-19T22:54:16.617Z,58.97
2023-01-19T22:55:16.444Z,59.47
2023-01-19T22:56:16.928Z,58.93
2023-01-19T22:57:15.487Z,58.86
2023-01-19T22:59:15.386Z,59.37
2023-01-19T23:00:16.605Z,59.20
2023-01-19T23:01:17.553Z,58.65
2023-01-19T23:02:15.320Z,58.30
2023-01-19T23:03:15.253Z,58.07
2023-01-19T23:04:15.230Z,58.00
2023-01-19T23:05:15.549Z,58.10
2023-01-19T23:06:17.841Z,57.98
2023-01-19T23:07:15.069Z,57.79
2023-01-19T23:08:15.866Z,57.72
2023-01-19T23:09:15.256Z,57.62
2023-01-19T23:10:14.931Z,57.59
2023-01-19T23:11:14.874Z,57.32
2023-01-19T23:12:14.805Z,56.92
2023-01-19T23:13:14.754Z,56.51
2023-01-19T23:14:14.747Z,56.52
2023-01-19T23:15:16.613Z,56.14
2023-01-19T23:16:16.237Z,55.92
2023-01-19T23:17:14.751Z,56.53
2023-01-19T23:18:14.737Z,56.36
2023-01-19T23:19:14.677Z,56.18
2023-01-19T23:20:15.400Z,56.12
2023-01-19T23:21:14.784Z,55.91
2023-01-19T23:22:14.974Z,55.99
2023-01-19T23:23:15.426Z,56.09
2023-01-19T23:24:14.466Z,55.85
2023-01-19T23:25:15.267Z,55.77
2023-01-19T23:26:16.440Z,55.55
2023-01-19T23:27:13.313Z,55.60
2023-01-19T23:28:14.263Z,56.30
2023-01-19T23:29:15.242Z,57.27
2023-01-19T23:30:14.659Z,57.62
2023-01-19T23:31:16.295Z,58.30
2023-01-19T23:32:13.363Z,58.83
2023-01-19T23:33:14.431Z,58.66
2023-01-19T23:34:14.100Z,58.64
2023-01-19T23:35:14.517Z,58.83
2023-01-19T23:36:14.027Z,58.51
2023-01-19T23:37:14.021Z,58.29
2023-01-19T23:38:15.010Z,58.21
2023-01-19T23:39:12.913Z,57.89
2023-01-19T23:40:14.259Z,57.65
2023-01-19T23:41:14.489Z,57.51
2023-01-19T23:42:15.751Z,57.22
2023-01-19T23:43:13.752Z,57.10
2023-01-19T23:44:13.726Z,56.80
2023-01-19T23:47:18.444Z,56.32
2023-01-19T23:48:19.805Z,56.27
2023-01-19T23:49:18.898Z,56.17
2023-01-19T23:50:18.871Z,55.92
2023-01-19T23:51:18.770Z,55.98
2023-01-19T23:52:19.265Z,55.74
2023-01-19T23:53:21.855Z,55.72
2023-01-19T23:54:18.692Z,55.68
2023-01-19T23:55:19.332Z,56.05
2023-01-19T23:56:17.239Z,56.24
2023-01-19T23:57:17.552Z,55.91
2023-01-19T23:58:17.085Z,55.84
2023-01-19T23:59:17.669Z,55.64
